Time;durP1;ratioP1;P1;durP2;ratioP2;P2;SDS_P1;SDS_P2;PMS_P1;PMS_P2;Temp;Humidity;BMP_temperature;BMP_pressure;BME280_temperature;BME280_humidity;BME280_pressure;Samples;Min_cycle;Max_cycle;Signal;HPM_P1;HPM_P2
2022/04/07 00:00:21;;;;;;;12.43;7.03;;;7.70;99.90;;;;;;10345911;28;20203;-84
2022/04/07 00:05:43;;;;;;;11.47;6.70;;;7.60;99.90;;;;;;10326026;28;20253;-84
2022/04/07 00:11:04;;;;;;;9.87;6.20;;;7.60;99.90;;;;;;10318848;28;20272;-87
2022/04/07 00:16:26;;;;;;;12.93;5.97;;;7.50;99.90;;;;;;10305584;28;20252;-87
2022/04/07 00:21:47;;;;;;;12.77;6.87;;;7.50;99.90;;;;;;10261892;29;20202;-87
2022/04/07 00:27:09;;;;;;;13.70;7.37;;;7.50;99.90;;;;;;10285037;28;20190;-86
2022/04/07 00:32:30;;;;;;;13.70;6.20;;;7.40;99.90;;;;;;10359415;28;20215;-87
2022/04/07 00:37:52;;;;;;;14.20;5.93;;;7.50;99.90;;;;;;10344567;28;20233;-85
2022/04/07 00:43:31;;;;;;;6.77;4.40;;;7.50;99.90;;;;;;10330710;28;20219;-83
2022/04/07 00:48:52;;;;;;;9.63;5.30;;;7.40;99.90;;;;;;10342349;28;20213;-83
2022/04/07 00:54:13;;;;;;;10.30;5.63;;;7.50;99.90;;;;;;10318504;28;20212;-85
2022/04/07 00:59:35;;;;;;;9.73;5.10;;;7.40;99.90;;;;;;10303842;28;20233;-84
2022/04/07 01:04:57;;;;;;;7.20;5.33;;;7.50;99.90;;;;;;10318214;28;20201;-88
2022/04/07 01:10:19;;;;;;;13.63;5.97;;;7.50;99.90;;;;;;10300304;28;20205;-87
2022/04/07 01:15:41;;;;;;;10.80;5.23;;;7.40;99.90;;;;;;10287065;28;20298;-85
2022/04/07 01:21:02;;;;;;;6.37;4.50;;;7.30;99.90;;;;;;10317217;28;20591;-85
2022/04/07 01:26:25;;;;;;;8.97;4.60;;;7.30;99.90;;;;;;10311432;28;20222;-79
2022/04/07 01:31:46;;;;;;;9.83;4.80;;;7.30;99.90;;;;;;10358459;28;20247;-87
2022/04/07 01:37:09;;;;;;;6.70;4.00;;;7.30;99.90;;;;;;10339826;28;20529;-85
2022/04/07 01:42:33;;;;;;;16.17;6.80;;;7.30;99.90;;;;;;10312352;28;20586;-87
2022/04/07 01:47:55;;;;;;;10.93;4.87;;;7.30;99.90;;;;;;10338814;28;20202;-87
2022/04/07 01:53:17;;;;;;;43.77;17.90;;;7.30;99.90;;;;;;10261897;29;20189;-86
2022/04/07 01:58:40;;;;;;;24.07;9.60;;;7.40;99.90;;;;;;10275536;28;20297;-84
2022/04/07 02:04:01;;;;;;;10.23;5.03;;;7.30;99.90;;;;;;10281631;28;20223;-86
2022/04/07 02:09:22;;;;;;;10.83;5.13;;;7.40;99.90;;;;;;10321191;28;20200;-78
2022/04/07 02:14:44;;;;;;;9.30;5.70;;;7.40;99.90;;;;;;10379403;28;20193;-86
2022/04/07 02:20:07;;;;;;;9.37;4.80;;;7.40;99.90;;;;;;10307111;28;20224;-83
2022/04/07 02:25:29;;;;;;;7.30;4.33;;;7.50;99.90;;;;;;10285198;28;20276;-87
2022/04/07 02:30:51;;;;;;;7.27;4.33;;;7.50;99.90;;;;;;10347363;28;20393;-87
2022/04/07 02:36:13;;;;;;;11.23;4.83;;;7.40;99.90;;;;;;10341286;28;20588;-86
2022/04/07 02:41:34;;;;;;;7.77;4.50;;;7.30;99.90;;;;;;10338608;28;20260;-86
2022/04/07 02:46:56;;;;;;;10.60;4.67;;;7.30;99.90;;;;;;10329260;28;20239;-87
2022/04/07 02:52:17;;;;;;;10.53;4.27;;;7.40;99.90;;;;;;10314056;28;20230;-87
2022/04/07 02:57:39;;;;;;;7.53;3.70;;;7.30;99.90;;;;;;10300562;28;20290;-83
2022/04/07 03:03:00;;;;;;;7.67;4.10;;;7.40;99.90;;;;;;10297777;28;20209;-87
2022/04/07 03:08:21;;;;;;;8.37;4.43;;;7.40;99.90;;;;;;10306039;28;20205;-86
2022/04/07 03:13:42;;;;;;;12.43;4.80;;;7.30;99.90;;;;;;10306890;28;20202;-85
2022/04/07 03:19:04;;;;;;;7.60;3.47;;;7.20;99.90;;;;;;10320374;28;20416;-86
2022/04/07 03:24:25;;;;;;;6.90;3.77;;;7.10;99.90;;;;;;10291303;28;20215;-85
2022/04/07 03:29:46;;;;;;;8.70;3.87;;;7.00;99.90;;;;;;10345422;28;20251;-87
2022/04/07 03:35:08;;;;;;;9.07;4.40;;;7.00;99.90;;;;;;10346730;28;20208;-86
2022/04/07 03:40:29;;;;;;;6.40;3.80;;;7.00;99.90;;;;;;10346938;28;20565;-83
2022/04/07 03:45:50;;;;;;;4.27;3.57;;;7.00;99.90;;;;;;10304479;28;20275;-87
2022/04/07 03:51:11;;;;;;;7.47;4.00;;;7.00;99.90;;;;;;10280342;28;20202;-81
2022/04/07 03:56:32;;;;;;;36.70;13.07;;;6.90;99.90;;;;;;10279240;29;20231;-80
2022/04/07 04:01:54;;;;;;;28.50;13.87;;;6.90;99.90;;;;;;10279917;29;20194;-84
2022/04/07 04:07:16;;;;;;;43.90;19.87;;;6.70;99.90;;;;;;10276740;28;20260;-87
2022/04/07 04:12:37;;;;;;;33.37;12.67;;;6.60;99.90;;;;;;10318935;28;20196;-87
2022/04/07 04:17:59;;;;;;;18.23;8.23;;;6.60;99.90;;;;;;10299988;28;20229;-87
2022/04/07 04:23:21;;;;;;;26.70;13.20;;;6.50;99.90;;;;;;10279366;28;20227;-85
2022/04/07 04:28:42;;;;;;;54.53;23.87;;;6.50;99.90;;;;;;10282445;28;20195;-87
2022/04/07 04:34:03;;;;;;;25.93;10.80;;;6.60;99.90;;;;;;10319151;28;20573;-87
2022/04/07 04:39:24;;;;;;;15.57;7.70;;;6.60;99.90;;;;;;10304301;28;20228;-88
2022/04/07 04:44:46;;;;;;;12.33;7.50;;;6.60;99.90;;;;;;10349637;28;20231;-87
2022/04/07 04:50:08;;;;;;;25.10;13.83;;;6.70;99.90;;;;;;10307701;28;20252;-87
2022/04/07 04:55:30;;;;;;;24.60;9.97;;;6.80;99.90;;;;;;10318532;28;20193;-87
2022/04/07 05:00:51;;;;;;;13.77;7.43;;;6.80;99.90;;;;;;10288731;28;20208;-87
2022/04/07 05:06:12;;;;;;;15.87;9.27;;;6.90;99.90;;;;;;10287325;28;20200;-87
2022/04/07 05:11:34;;;;;;;19.83;10.37;;;7.00;99.90;;;;;;10316768;28;20208;-86
2022/04/07 05:16:55;;;;;;;13.93;7.70;;;7.00;99.90;;;;;;10317621;28;20227;-89
2022/04/07 05:22:18;;;;;;;9.63;5.63;;;7.10;99.90;;;;;;10295473;28;20538;-89
2022/04/07 05:27:42;;;;;;;11.90;6.27;;;7.20;99.90;;;;;;10298596;28;20299;-89
2022/04/07 05:33:04;;;;;;;13.47;6.73;;;7.30;99.90;;;;;;10342966;28;20275;-90
2022/04/07 05:38:25;;;;;;;12.20;6.70;;;7.30;99.90;;;;;;10351486;28;20242;-88
2022/04/07 05:43:47;;;;;;;10.33;6.27;;;7.30;99.90;;;;;;10315698;28;20386;-83
2022/04/07 05:49:10;;;;;;;12.73;7.07;;;7.50;99.90;;;;;;10319748;28;20229;-87
2022/04/07 05:54:32;;;;;;;17.37;9.77;;;7.80;99.90;;;;;;10305566;28;20206;-88
2022/04/07 05:59:53;;;;;;;15.30;7.90;;;8.00;99.90;;;;;;10324403;28;20253;-82
2022/04/07 06:05:18;;;;;;;22.80;10.53;;;8.10;99.90;;;;;;10328560;28;20196;-90
2022/04/07 06:10:40;;;;;;;20.00;8.37;;;8.20;99.90;;;;;;10280064;29;20182;-90
2022/04/07 06:16:04;;;;;;;27.70;12.47;;;8.30;99.90;;;;;;10285484;29;20212;-88
2022/04/07 06:21:29;;;;;;;13.63;7.80;;;8.40;99.90;;;;;;10290959;28;20196;-85
2022/04/07 06:26:50;;;;;;;14.27;7.87;;;8.60;99.90;;;;;;10264015;28;20244;-85
2022/04/07 06:32:11;;;;;;;10.33;5.40;;;8.80;99.90;;;;;;10339054;28;20202;-90
2022/04/07 06:37:54;;;;;;;6.53;4.63;;;9.90;99.90;;;;;;10271333;28;20224;-90
2022/04/07 06:43:15;;;;;;;12.23;5.00;;;11.00;99.90;;;;;;10262041;29;20228;-91
2022/04/07 06:48:38;;;;;;;9.47;5.20;;;;;;;;;;10287320;28;20202;-91
2022/04/07 06:53:59;;;;;;;15.55;6.18;;;;;;;;;;10310319;28;20198;-92
2022/04/07 06:59:20;;;;;;;6.32;3.83;;;13.10;99.90;;;;;;10306199;28;20237;-90
2022/04/07 07:04:41;;;;;;;7.10;3.78;;;;;;;;;;10308888;28;20511;-85
2022/04/07 07:10:04;;;;;;;6.35;3.55;;;13.90;99.90;;;;;;10306697;28;20228;-89
2022/04/07 07:15:25;;;;;;;12.35;4.80;;;14.20;99.90;;;;;;10293878;28;20198;-83
2022/04/07 07:20:46;;;;;;;8.00;3.90;;;14.50;99.90;;;;;;10325715;28;20242;-85
2022/04/07 07:26:08;;;;;;;10.30;5.32;;;14.40;99.90;;;;;;10278303;28;20550;-86
2022/04/07 07:31:30;;;;;;;14.25;8.93;;;;;;;;;;10317050;28;20277;-87
2022/04/07 07:36:52;;;;;;;5.63;3.35;;;14.80;99.90;;;;;;10287060;28;20251;-87
2022/04/07 07:42:14;;;;;;;7.53;4.30;;;15.30;99.90;;;;;;10319855;28;20856;-78
2022/04/07 07:47:37;;;;;;;8.55;4.63;;;14.70;99.90;;;;;;10303985;28;20288;-79
2022/04/07 07:52:58;;;;;;;19.23;7.13;;;13.90;99.90;;;;;;10320316;28;20287;-85
2022/04/07 07:58:20;;;;;;;12.52;6.43;;;14.30;99.90;;;;;;10317645;28;20251;-89
2022/04/07 08:03:41;;;;;;;11.02;4.68;;;15.10;99.90;;;;;;10295281;28;20196;-82
2022/04/07 08:09:02;;;;;;;8.02;5.10;;;15.60;99.50;;;;;;10305823;28;20199;-81
2022/04/07 08:14:24;;;;;;;7.35;5.88;;;15.60;98.40;;;;;;10283963;28;20512;-78
2022/04/07 08:19:45;;;;;;;10.93;7.57;;;15.20;99.70;;;;;;10316448;28;20310;-87
2022/04/07 08:25:07;;;;;;;46.97;36.17;;;14.60;99.90;;;;;;10296654;28;20199;-84
2022/04/07 08:30:33;;;;;;;7.50;6.32;;;14.30;99.90;;;;;;10298454;28;20222;-80
2022/04/07 08:35:55;;;;;;;13.65;9.63;;;14.00;99.90;;;;;;10315722;28;20240;-86
2022/04/07 08:41:18;;;;;;;11.25;7.80;;;13.90;99.90;;;;;;10281693;28;20214;-90
2022/04/07 08:46:40;;;;;;;17.42;9.32;;;14.00;99.90;;;;;;10302849;28;20204;-85
2022/04/07 08:52:02;;;;;;;10.63;5.43;;;14.90;99.90;;;;;;10316035;28;20203;-83
2022/04/07 08:57:26;;;;;;;7.80;4.60;;;16.00;97.60;;;;;;10305446;28;20229;-90
2022/04/07 09:02:47;;;;;;;9.40;3.97;;;16.10;94.90;;;;;;10315832;28;20202;-92
2022/04/07 09:08:10;;;;;;;8.40;4.00;;;15.70;97.40;;;;;;10299986;28;20215;-85
2022/04/07 09:13:36;;;;;;;9.48;4.32;;;15.00;98.30;;;;;;10299136;28;20203;-85
2022/04/07 09:19:00;;;;;;;7.40;4.00;;;14.60;99.90;;;;;;10311847;28;20311;-87
2022/04/07 09:24:26;;;;;;;7.70;4.93;;;14.50;99.90;;;;;;10311432;28;20482;-85
2022/04/07 09:29:48;;;;;;;7.43;4.40;;;15.20;99.90;;;;;;10299348;28;20400;-85
2022/04/07 09:35:11;;;;;;;13.10;5.68;;;15.80;97.70;;;;;;10296065;28;20230;-90
2022/04/07 09:40:32;;;;;;;8.85;4.88;;;15.30;98.20;;;;;;10307950;28;20231;-82
2022/04/07 09:45:54;;;;;;;7.07;4.38;;;15.40;98.20;;;;;;10296294;28;20233;-86
2022/04/07 09:51:27;;;;;;;7.90;4.03;;;16.10;96.60;;;;;;10311302;28;20204;-86
2022/04/07 09:56:49;;;;;;;9.45;5.43;;;16.30;95.40;;;;;;10311755;28;20239;-81
2022/04/07 10:02:12;;;;;;;13.32;6.95;;;15.30;98.50;;;;;;10313676;28;20327;-84
2022/04/07 10:07:33;;;;;;;11.85;7.32;;;14.50;99.90;;;;;;10306494;28;20387;-88
2022/04/07 10:12:59;;;;;;;18.15;7.93;;;13.80;99.90;;;;;;10314705;28;20293;-93
2022/04/07 10:18:33;;;;;;;12.27;8.13;;;13.30;99.90;;;;;;10284571;28;20306;-81
2022/04/07 10:24:12;;;;;;;11.55;5.47;;;12.90;99.90;;;;;;10330416;28;20285;-90
2022/04/07 10:29:34;;;;;;;15.00;7.23;;;12.70;99.90;;;;;;10317525;28;20513;-85
2022/04/07 10:34:57;;;;;;;30.30;13.53;;;12.50;99.90;;;;;;10303875;28;20221;-85
2022/04/07 10:40:38;;;;;;;13.30;7.40;;;12.80;99.90;;;;;;10306019;28;20476;-91
2022/04/07 10:46:06;;;;;;;11.57;7.80;;;13.40;99.90;;;;;;10321965;28;20232;-87
2022/04/07 10:51:40;;;;;;;6.47;4.20;;;14.90;99.90;;;;;;10363326;28;20197;-86
2022/04/07 10:57:01;;;;;;;7.40;5.03;;;15.60;99.90;;;;;;10345884;28;20240;-82
2022/04/07 11:02:32;;;;;;;13.82;6.40;;;15.80;99.90;;;;;;10313432;28;20270;-86
2022/04/07 11:07:54;;;;;;;11.05;4.75;;;15.50;99.90;;;;;;10323507;28;20207;-86
2022/04/07 11:13:16;;;;;;;8.48;5.13;;;14.90;99.70;;;;;;10300887;28;20433;-84
2022/04/07 11:19:03;;;;;;;15.45;8.82;;;14.50;99.90;;;;;;10331693;28;20252;-87
2022/04/07 11:24:34;;;;;;;9.57;5.35;;;14.00;99.90;;;;;;10315959;28;20194;-89
2022/04/07 11:30:08;;;;;;;9.73;4.72;;;13.80;99.90;;;;;;10302367;28;20210;-86
2022/04/07 11:35:29;;;;;;;5.40;2.70;;;14.10;99.90;;;;;;10308494;28;20286;-81
2022/04/07 11:41:07;;;;;;;6.10;3.38;;;14.40;99.90;;;;;;10327477;28;20238;-87
2022/04/07 11:46:33;;;;;;;7.88;5.15;;;15.00;99.90;;;;;;10325608;28;20204;-83
2022/04/07 11:51:54;;;;;;;11.70;5.78;;;16.10;96.20;;;;;;10346523;28;20200;-84
2022/04/07 11:57:17;;;;;;;9.15;5.88;;;16.30;94.50;;;;;;10323373;28;20224;-81
2022/04/07 12:02:38;;;;;;;7.65;4.63;;;15.80;96.70;;;;;;10304286;28;20247;-95
2022/04/07 12:08:16;;;;;;;10.13;5.90;;;15.90;97.10;;;;;;10338534;28;20246;-85
2022/04/07 12:13:38;;;;;;;8.85;5.43;;;15.30;97.80;;;;;;10317651;28;20215;-84
2022/04/07 12:19:04;;;;;;;5.95;4.00;;;15.10;99.30;;;;;;10314331;28;20245;-87
2022/04/07 12:24:27;;;;;;;22.63;10.60;;;15.20;99.60;;;;;;10309543;28;20249;-85
2022/04/07 12:29:49;;;;;;;37.30;13.55;;;15.10;99.90;;;;;;10305748;28;20766;-84
2022/04/07 12:35:10;;;;;;;187.10;59.80;;;;;;;;;;10317970;28;20209;-85
2022/04/07 12:40:32;;;;;;;6.50;4.15;;;15.70;98.70;;;;;;10330448;28;20234;-86
2022/04/07 12:45:57;;;;;;;3.80;3.20;;;15.60;98.10;;;;;;10354483;28;20237;-84
2022/04/07 12:51:22;;;;;;;7.00;5.32;;;15.20;99.00;;;;;;10318087;28;20204;-83
2022/04/07 12:56:44;;;;;;;9.32;4.53;;;15.00;99.50;;;;;;10295896;28;20194;-85
2022/04/07 13:02:06;;;;;;;4.10;2.95;;;14.50;99.90;;;;;;10341687;28;20210;-85
2022/04/07 13:07:28;;;;;;;4.27;3.37;;;14.10;99.90;;;;;;10338347;28;20209;-81
2022/04/07 13:12:50;;;;;;;10.50;4.13;;;14.10;99.90;;;;;;10327358;28;20198;-91
2022/04/07 13:18:12;;;;;;;14.18;4.18;;;13.90;99.90;;;;;;10319214;28;20248;-79
2022/04/07 13:23:34;;;;;;;4.17;2.33;;;13.70;99.90;;;;;;10323858;28;20199;-88
2022/04/07 13:28:55;;;;;;;9.03;4.10;;;13.50;99.90;;;;;;10312918;28;20256;-87
2022/04/07 13:34:17;;;;;;;3.97;3.00;;;13.80;99.90;;;;;;10328722;28;20201;-79
2022/04/07 13:39:38;;;;;;;5.70;2.63;;;14.00;99.90;;;;;;10319562;28;20269;-82
2022/04/07 13:45:10;;;;;;;6.07;2.85;;;14.20;99.90;;;;;;10324868;28;20236;-76
2022/04/07 13:50:32;;;;;;;6.88;2.75;;;14.10;99.90;;;;;;10325690;28;20368;-85
2022/04/07 13:55:53;;;;;;;5.20;3.20;;;14.40;99.90;;;;;;10309885;28;20200;-88
2022/04/07 14:01:19;;;;;;;7.97;4.32;;;14.80;99.50;;;;;;10324511;28;20225;-81
2022/04/07 14:06:42;;;;;;;10.00;3.38;;;14.90;99.50;;;;;;10340735;28;20191;-82
2022/04/07 14:12:04;;;;;;;10.98;4.82;;;14.70;99.60;;;;;;10341117;28;20557;-79
2022/04/07 14:17:25;;;;;;;8.68;2.70;;;14.60;99.90;;;;;;10339278;28;20301;-84
2022/04/07 14:22:47;;;;;;;4.90;2.60;;;14.30;99.90;;;;;;10326520;28;20214;-85
2022/04/07 14:28:10;;;;;;;5.25;2.47;;;14.10;99.90;;;;;;10313161;28;20263;-85
2022/04/07 14:33:32;;;;;;;7.18;3.60;;;14.10;99.90;;;;;;10298436;28;20281;-87
2022/04/07 14:38:53;;;;;;;5.60;2.72;;;14.00;99.90;;;;;;10324785;28;20236;-88
2022/04/07 14:44:15;;;;;;;9.40;2.78;;;13.80;99.90;;;;;;10282696;28;20262;-86
2022/04/07 14:49:36;;;;;;;5.70;2.60;;;13.90;99.90;;;;;;10282003;28;20217;-79
2022/04/07 14:55:04;;;;;;;5.40;3.15;;;14.00;99.90;;;;;;10287274;28;20242;-79
2022/04/07 15:00:26;;;;;;;8.03;4.83;;;14.00;99.90;;;;;;10274619;28;20237;-85
2022/04/07 15:05:48;;;;;;;6.90;3.42;;;14.20;99.90;;;;;;10277233;28;20380;-85
2022/04/07 15:11:09;;;;;;;10.52;4.97;;;14.10;99.90;;;;;;10283752;29;20209;-80
2022/04/07 15:16:31;;;;;;;14.80;3.72;;;14.00;99.90;;;;;;10299176;28;20202;-82
2022/04/07 15:21:53;;;;;;;7.32;3.30;;;13.90;99.90;;;;;;10281914;29;20228;-78
2022/04/07 15:27:14;;;;;;;8.25;4.28;;;13.70;99.90;;;;;;10283920;28;20227;-86
2022/04/07 15:32:35;;;;;;;7.85;2.40;;;13.60;99.90;;;;;;10283636;28;20206;-80
2022/04/07 15:38:01;;;;;;;8.63;3.10;;;13.50;99.90;;;;;;10252036;29;20222;-79
2022/04/07 15:43:24;;;;;;;8.07;4.23;;;13.40;99.90;;;;;;10298641;28;20285;-86
2022/04/07 15:48:45;;;;;;;10.67;3.47;;;13.40;99.90;;;;;;10320570;28;20189;-79
2022/04/07 15:54:06;;;;;;;14.73;3.08;;;13.40;99.90;;;;;;10326944;28;20281;-78
2022/04/07 15:59:28;;;;;;;8.53;3.53;;;13.10;99.90;;;;;;10331831;28;20553;-77
2022/04/07 16:04:49;;;;;;;8.63;3.67;;;12.80;99.90;;;;;;10320177;28;20276;-82
2022/04/07 16:10:10;;;;;;;11.10;3.67;;;12.40;99.90;;;;;;10305203;28;20212;-85
2022/04/07 16:15:32;;;;;;;21.70;9.27;;;12.20;99.90;;;;;;10319249;28;20202;-80
2022/04/07 16:20:55;;;;;;;19.97;6.90;;;12.00;99.90;;;;;;10304672;28;20225;-77
2022/04/07 16:26:16;;;;;;;32.17;14.67;;;11.60;99.90;;;;;;10319002;28;20201;-80
2022/04/07 16:31:37;;;;;;;20.70;9.03;;;11.30;99.90;;;;;;10337841;28;20200;-79
2022/04/07 16:37:00;;;;;;;14.23;5.23;;;11.10;99.90;;;;;;10317194;28;20243;-83
2022/04/07 16:42:21;;;;;;;12.17;4.50;;;10.90;99.90;;;;;;10317931;28;20236;-77
2022/04/07 16:47:43;;;;;;;19.80;5.17;;;10.70;99.90;;;;;;10317709;28;20250;-81
2022/04/07 16:53:05;;;;;;;6.57;3.70;;;10.70;99.90;;;;;;10317585;28;20215;-77
2022/04/07 16:58:27;;;;;;;9.17;4.20;;;10.70;99.90;;;;;;10316743;28;20298;-78
2022/04/07 17:03:48;;;;;;;5.63;3.13;;;10.50;99.90;;;;;;10317621;28;20222;-77
2022/04/07 17:09:10;;;;;;;11.43;4.10;;;10.40;99.90;;;;;;10315564;28;20218;-86
2022/04/07 17:14:32;;;;;;;7.50;3.60;;;10.50;99.90;;;;;;10317083;28;20197;-80
2022/04/07 17:19:56;;;;;;;8.23;3.50;;;10.40;99.90;;;;;;10315738;28;20228;-83
2022/04/07 17:25:18;;;;;;;6.70;3.90;;;10.40;99.90;;;;;;10316101;28;20219;-83
2022/04/07 17:30:40;;;;;;;13.07;5.63;;;10.40;99.90;;;;;;10313947;28;20303;-78
2022/04/07 17:36:04;;;;;;;9.20;5.07;;;10.30;99.90;;;;;;10299092;28;20200;-81
2022/04/07 17:41:25;;;;;;;17.33;4.37;;;10.20;99.90;;;;;;10316104;28;20307;-85
2022/04/07 17:46:46;;;;;;;10.60;4.13;;;10.20;99.90;;;;;;10301937;28;20375;-80
2022/04/07 17:52:09;;;;;;;12.90;5.07;;;10.10;99.90;;;;;;10284976;28;20227;-85
2022/04/07 17:57:33;;;;;;;14.97;5.90;;;10.00;99.90;;;;;;10315699;28;20202;-79
2022/04/07 18:02:55;;;;;;;14.77;5.23;;;10.00;99.90;;;;;;10315780;28;20238;-86
2022/04/07 18:08:16;;;;;;;13.80;5.63;;;9.80;99.90;;;;;;10324461;28;20201;-86
2022/04/07 18:13:38;;;;;;;10.13;4.13;;;9.80;99.90;;;;;;10355692;28;20221;-78
2022/04/07 18:18:59;;;;;;;13.20;5.47;;;9.80;99.90;;;;;;10338154;28;20275;-86
2022/04/07 18:24:21;;;;;;;14.90;4.03;;;9.80;99.90;;;;;;10343597;28;20195;-81
2022/04/07 18:29:42;;;;;;;2.03;1.40;;;9.80;99.90;;;;;;10313070;28;20209;-82
2022/04/07 18:35:03;;;;;;;2.83;1.40;;;9.70;99.90;;;;;;10287229;28;20240;-79
2022/04/07 18:40:25;;;;;;;4.37;1.80;;;;;;;;;;10316586;28;20246;-84
2022/04/07 18:45:47;;;;;;;4.63;2.23;;;9.00;99.90;;;;;;10325134;28;20219;-86
2022/04/07 18:51:08;;;;;;;6.50;2.73;;;8.80;99.90;;;;;;10322662;28;20235;-78
2022/04/07 18:56:29;;;;;;;4.67;1.53;;;8.60;99.90;;;;;;10307663;28;20279;-81
2022/04/07 19:01:51;;;;;;;3.40;1.67;;;8.60;99.90;;;;;;10321076;28;20223;-85
2022/04/07 19:07:12;;;;;;;5.40;2.37;;;8.40;99.90;;;;;;10321936;28;20271;-77
2022/04/07 19:12:43;;;;;;;3.30;1.70;;;8.30;99.90;;;;;;10321872;28;20191;-78
2022/04/07 19:18:05;;;;;;;2.13;1.20;;;8.20;99.90;;;;;;10321371;28;20221;-80
2022/04/07 19:23:26;;;;;;;1.93;1.00;;;8.10;99.90;;;;;;10290488;28;20197;-85
2022/04/07 19:28:48;;;;;;;2.77;1.50;;;8.00;99.90;;;;;;10303401;28;20210;-86
2022/04/07 19:34:10;;;;;;;5.00;1.47;;;;;;;;;;10321150;28;20190;-82
2022/04/07 19:39:32;;;;;;;3.20;1.90;;;7.80;99.90;;;;;;10320823;28;20233;-86
2022/04/07 19:44:54;;;;;;;3.43;1.60;;;7.80;99.90;;;;;;10320704;28;20229;-84
2022/04/07 19:50:15;;;;;;;2.40;1.50;;;7.80;99.90;;;;;;10320445;28;20357;-83
2022/04/07 19:55:37;;;;;;;4.07;2.53;;;7.80;99.90;;;;;;10319163;28;20478;-77
2022/04/07 20:00:58;;;;;;;1.97;1.50;;;7.80;99.90;;;;;;10320153;28;20271;-81
2022/04/07 20:06:20;;;;;;;1.97;1.23;;;7.70;99.90;;;;;;10320018;28;20194;-86
2022/04/07 20:11:41;;;;;;;3.50;1.80;;;7.60;99.90;;;;;;10319150;28;20294;-87
2022/04/07 20:17:02;;;;;;;3.17;2.23;;;7.60;99.90;;;;;;10320018;28;20193;-83
2022/04/07 20:22:25;;;;;;;4.73;2.77;;;7.50;99.90;;;;;;10318404;28;20232;-85
2022/04/07 20:27:46;;;;;;;4.70;2.87;;;7.50;99.90;;;;;;10294813;28;20197;-77
2022/04/07 20:33:08;;;;;;;12.63;4.90;;;7.40;99.90;;;;;;10327579;28;20414;-79
2022/04/07 20:38:28;;;;;;;6.33;2.60;;;7.30;99.90;;;;;;10294160;28;20231;-77
2022/04/07 20:43:49;;;;;;;15.67;6.47;;;7.30;99.90;;;;;;10318443;28;20238;-80
2022/04/07 20:49:11;;;;;;;14.70;5.50;;;7.10;99.90;;;;;;10317373;28;20255;-77
2022/04/07 20:54:33;;;;;;;7.70;3.87;;;7.00;99.90;;;;;;10317863;28;20254;-86
2022/04/07 20:59:54;;;;;;;9.67;3.90;;;6.90;99.90;;;;;;10303352;28;20229;-79
2022/04/07 21:05:17;;;;;;;14.17;6.07;;;6.90;99.90;;;;;;10317316;28;20271;-84
2022/04/07 21:10:38;;;;;;;5.27;3.00;;;6.80;99.90;;;;;;10317141;28;20216;-78
2022/04/07 21:16:00;;;;;;;7.30;3.90;;;6.70;99.90;;;;;;10287106;28;20400;-80
2022/04/07 21:21:21;;;;;;;6.63;3.03;;;6.70;99.90;;;;;;10303118;28;20445;-85
2022/04/07 21:26:43;;;;;;;8.03;3.40;;;6.60;99.90;;;;;;10316959;28;20208;-85
2022/04/07 21:32:05;;;;;;;4.93;2.47;;;6.60;99.90;;;;;;10327383;28;20226;-86
2022/04/07 21:37:26;;;;;;;4.37;2.70;;;6.60;99.90;;;;;;10316549;28;20490;-78
2022/04/07 21:42:47;;;;;;;5.73;2.93;;;6.50;99.90;;;;;;10285956;28;20266;-84
2022/04/07 21:48:09;;;;;;;5.03;2.40;;;6.40;99.90;;;;;;10316451;28;20199;-86
2022/04/07 21:53:30;;;;;;;5.73;2.70;;;6.50;99.90;;;;;;10315891;28;20195;-86
2022/04/07 21:58:52;;;;;;;4.30;1.93;;;6.60;99.90;;;;;;10315345;28;20238;-78
2022/04/07 22:04:14;;;;;;;2.23;2.00;;;6.60;99.90;;;;;;10301361;28;20193;-80
2022/04/07 22:09:36;;;;;;;2.97;2.20;;;6.60;99.90;;;;;;10301230;28;20209;-85
2022/04/07 22:14:57;;;;;;;4.47;2.23;;;6.60;99.90;;;;;;10315459;28;20194;-79
2022/04/07 22:20:18;;;;;;;4.37;2.83;;;6.60;99.90;;;;;;10314877;28;20234;-78
2022/04/07 22:25:40;;;;;;;3.43;2.13;;;6.50;99.90;;;;;;10313529;28;20353;-77
2022/04/07 22:31:01;;;;;;;5.87;2.30;;;6.40;99.90;;;;;;10296842;28;20208;-83
2022/04/07 22:36:22;;;;;;;7.17;3.33;;;6.50;99.90;;;;;;10300962;28;20212;-77
2022/04/07 22:42:00;;;;;;;4.87;2.33;;;6.50;99.90;;;;;;10300366;28;20240;-85
2022/04/07 22:47:21;;;;;;;3.87;2.17;;;6.30;99.90;;;;;;10300700;28;20196;-78
2022/04/07 22:52:43;;;;;;;2.93;1.90;;;6.40;99.90;;;;;;10313637;28;21317;-77
2022/04/07 22:58:05;;;;;;;3.13;1.60;;;6.50;99.90;;;;;;10314782;28;20195;-85
2022/04/07 23:03:26;;;;;;;2.70;1.40;;;6.40;99.90;;;;;;10299798;28;20192;-77
2022/04/07 23:08:47;;;;;;;2.90;1.23;;;6.50;99.90;;;;;;10324681;28;20230;-80
2022/04/07 23:14:08;;;;;;;6.00;1.93;;;6.50;99.90;;;;;;10340421;28;20489;-86
2022/04/07 23:19:30;;;;;;;4.10;2.10;;;6.40;99.90;;;;;;10337329;28;20252;-84
2022/04/07 23:24:52;;;;;;;4.67;1.93;;;6.40;99.90;;;;;;10316973;28;20510;-85
2022/04/07 23:30:13;;;;;;;5.30;1.93;;;6.30;99.90;;;;;;10317578;28;20212;-86
2022/04/07 23:35:34;;;;;;;3.50;1.40;;;6.40;99.90;;;;;;10306875;28;20198;-80
2022/04/07 23:40:56;;;;;;;3.10;2.10;;;6.30;99.90;;;;;;10306384;28;20223;-82
2022/04/07 23:46:17;;;;;;;2.80;1.40;;;6.20;99.90;;;;;;10320817;28;20274;-78
2022/04/07 23:51:38;;;;;;;2.37;1.40;;;6.20;99.90;;;;;;10320235;28;20387;-78
2022/04/07 23:57:00;;;;;;;2.30;1.60;;;6.30;99.90;;;;;;10289469;28;20275;-79
